フンシャル の空港の天気 - METARとTAF

マデイラ空港 ( LPMA / FNC ) - ポルトガル フンシャル (マデイラ諸島)
飛行場実況気象(Metar)
観測時間09/22 22:00 WEST (09/22 21:00 UTC)
風向・風速北北東 3m/s
視程10km以上
天気現象
少しの雲 雲底高度 490m
気温21℃
湿度73%
気圧1021hPa
METARLPMA 222100Z 02006KT 330V070 9999 FEW016 21/16 Q1021
過去の天気等 Google飛行場航空写真 Wunderground天気予報

過去48時間のMETAR

飛行場予報(TAF)
発表時間: 9/22 18:00 WEST (9/22 17:00 UTC)
予報対象時間: 22日19時 WEST ~ 23日19時 WEST
風向・風速北 5m/s
視程10km以上
全天の4割程度の雲 雲底高度 460m
22日21時 WEST ~ 22日24時 WEST に徐々に
風向・風速不定 3m/s
23日10時 WEST ~ 23日13時 WEST に徐々に
風向・風速北北東 6m/s
TAF LPMA 221700Z 2218/2318 01010KT 9999 SCT015
BECMG 2220/2223 VRB05KT
BECMG 2309/2312 02012KT